Time;durP1;ratioP1;P1;durP2;ratioP2;P2;SDS_P1;SDS_P2;PMS_P1;PMS_P2;Temp;Humidity;BMP_temperature;BMP_pressure;BME280_temperature;BME280_humidity;BME280_pressure;Samples;Min_cycle;Max_cycle;Signal;HPM_P1;HPM_P2
2023/10/01 00:00:56;;;;;;;13.27;5.47;;;;;;;11.61;100.00;102435.03;5253662;28;20028;-69
2023/10/01 00:03:27;;;;;;;10.52;5.28;;;;;;;11.66;100.00;102437.31;5253150;28;20016;-69
2023/10/01 00:05:58;;;;;;;12.55;5.90;;;;;;;11.70;100.00;102435.19;5246211;28;20028;-69
2023/10/01 00:08:29;;;;;;;12.73;6.20;;;;;;;11.73;100.00;102438.47;5249829;28;20032;-69
2023/10/01 00:11:01;;;;;;;21.67;6.13;;;;;;;11.77;100.00;102439.91;5250914;28;20062;-69
2023/10/01 00:13:31;;;;;;;16.35;6.13;;;;;;;11.77;100.00;102441.75;5252108;28;20028;-69
2023/10/01 00:16:03;;;;;;;15.10;6.60;;;;;;;11.74;100.00;102433.94;5252496;28;20381;-69
2023/10/01 00:18:34;;;;;;;19.33;5.65;;;;;;;11.72;100.00;102436.78;5249732;28;20032;-69
2023/10/01 00:21:05;;;;;;;14.13;5.88;;;;;;;11.71;100.00;102434.22;5254647;28;20059;-69
2023/10/01 00:23:36;;;;;;;12.77;5.85;;;;;;;11.70;100.00;102430.69;5253408;28;20059;-69
2023/10/01 00:26:06;;;;;;;11.90;5.75;;;;;;;11.71;100.00;102434.22;5253968;28;20028;-69
2023/10/01 00:28:37;;;;;;;9.90;5.00;;;;;;;11.71;100.00;102435.06;5253542;28;20560;-69
2023/10/01 00:31:07;;;;;;;14.73;4.95;;;;;;;11.75;100.00;102435.66;5253896;28;20119;-69
2023/10/01 00:33:38;;;;;;;13.10;5.78;;;;;;;11.76;100.00;102431.97;5253758;28;20036;-69
2023/10/01 00:36:08;;;;;;;13.68;5.55;;;;;;;11.77;100.00;102433.69;5250193;28;20036;-69
2023/10/01 00:38:39;;;;;;;14.70;6.03;;;;;;;11.73;100.00;102433.09;5255541;28;20020;-69
2023/10/01 00:41:11;;;;;;;12.35;5.25;;;;;;;11.71;100.00;102432.38;5247670;28;20056;-69
2023/10/01 00:43:41;;;;;;;11.73;6.00;;;;;;;11.66;100.00;102432.78;5254239;28;20032;-69
2023/10/01 00:46:12;;;;;;;14.32;5.07;;;;;;;11.65;100.00;102431.09;5254295;28;20027;-69
2023/10/01 00:48:42;;;;;;;14.75;5.20;;;;;;;11.63;100.00;102427.66;5253875;28;20504;-69
2023/10/01 00:51:13;;;;;;;11.52;5.55;;;;;;;11.62;100.00;102427.81;5251131;28;20059;-69
2023/10/01 00:53:45;;;;;;;14.13;5.53;;;;;;;11.64;100.00;102429.38;5252483;28;20036;-69
2023/10/01 00:56:17;;;;;;;14.88;5.35;;;;;;;11.62;100.00;102423.28;5248076;28;20445;-69
2023/10/01 00:58:48;;;;;;;13.68;5.47;;;;;;;11.59;100.00;102423.53;5256975;28;20032;-69
2023/10/01 01:01:23;;;;;;;13.52;5.78;;;;;;;11.56;100.00;102421.13;5248752;28;20056;-69
2023/10/01 01:03:55;;;;;;;12.65;5.90;;;;;;;11.58;100.00;102412.94;5255478;28;20158;-69
2023/10/01 01:06:30;;;;;;;11.73;5.53;;;;;;;11.55;100.00;102410.53;5250003;28;20065;-69
2023/10/01 01:09:00;;;;;;;15.45;5.88;;;;;;;11.50;100.00;102415.47;5252252;28;20028;-69
2023/10/01 01:11:31;;;;;;;8.52;4.32;;;;;;;11.47;100.00;102415.72;5254780;28;20016;-69
2023/10/01 01:14:01;;;;;;;11.13;4.53;;;;;;;11.44;100.00;102407.91;5249036;28;20073;-69
2023/10/01 01:16:33;;;;;;;13.30;5.60;;;;;;;11.44;100.00;102399.84;5255447;28;20542;-69
2023/10/01 01:19:04;;;;;;;11.95;5.50;;;;;;;11.44;100.00;102407.91;5253249;28;20103;-69
2023/10/01 01:21:34;;;;;;;11.55;6.00;;;;;;;11.41;100.00;102406.34;5250303;28;20115;-69
2023/10/01 01:24:07;;;;;;;11.57;5.97;;;;;;;11.40;100.00;102407.34;5250504;28;20064;-69
2023/10/01 01:26:41;;;;;;;12.48;5.72;;;;;;;11.41;100.00;102406.34;5250927;28;20058;-69
2023/10/01 01:29:29;;;;;;;18.15;5.80;;;;;;;11.40;100.00;102402.81;5251015;28;20512;-69
2023/10/01 01:32:13;;;;;;;11.57;4.53;;;;;;;11.41;100.00;102392.94;5252201;28;20028;-69
2023/10/01 01:34:45;;;;;;;15.27;4.75;;;;;;;11.39;100.00;102393.03;5255122;28;20031;-69
2023/10/01 01:40:24;;;;;;;17.05;5.18;;;;;;;11.40;100.00;102388.53;5246616;28;20559;-69
2023/10/01 01:42:56;;;;;;;15.85;4.55;;;;;;;11.40;100.00;102375.94;5242760;28;20021;-69
2023/10/01 01:45:27;;;;;;;12.38;4.85;;;;;;;11.40;100.00;102375.09;5252355;28;20036;-69
2023/10/01 01:48:00;;;;;;;33.60;5.22;;;;;;;11.44;100.00;102379.19;5247665;28;20028;-69
2023/10/01 01:50:31;;;;;;;9.63;4.00;;;;;;;11.45;100.00;102380.94;5252209;28;20047;-69
2023/10/01 01:53:04;;;;;;;10.98;4.50;;;;;;;11.47;100.00;102384.31;5246606;28;20127;-69
2023/10/01 01:55:34;;;;;;;10.95;5.18;;;;;;;11.46;100.00;102371.88;5252870;28;20103;-69
2023/10/01 01:58:10;;;;;;;8.43;3.85;;;;;;;11.44;100.00;102378.34;5248071;28;20118;-70
2023/10/01 02:01:01;;;;;;;;;;;;;;;11.43;100.00;102372.13;5249626;28;20027;-69
2023/10/01 02:03:37;;;;;;;11.80;4.57;;;;;;;11.43;100.00;102376.66;5253980;28;19993;-69
2023/10/01 02:06:08;;;;;;;9.65;5.45;;;;;;;11.41;100.00;102364.22;5245838;28;20054;-69
2023/10/01 02:08:49;;;;;;;12.25;5.03;;;;;;;11.39;100.00;102366.16;5253565;28;20028;-69
2023/10/01 02:11:21;;;;;;;14.32;5.32;;;;;;;11.39;100.00;102363.47;5253932;28;20636;-70
2023/10/01 02:13:54;;;;;;;14.27;5.13;;;;;;;11.41;100.00;102368.75;5249936;28;20107;-69
2023/10/01 02:19:14;;;;;;;12.95;5.45;;;;;;;11.49;100.00;102358.16;5251916;28;20036;-69
2023/10/01 02:21:52;;;;;;;19.17;5.43;;;;;;;11.58;100.00;102346.59;5253557;28;20428;-69
2023/10/01 02:24:23;;;;;;;16.15;5.88;;;;;;;11.62;100.00;102345.31;5252180;28;20375;-69
2023/10/01 02:26:59;;;;;;;18.98;5.40;;;;;;;11.70;100.00;102341.97;5249851;28;20389;-69
2023/10/01 02:29:32;;;;;;;11.32;5.03;;;;;;;11.73;100.00;102340.84;5252359;28;20024;-69
2023/10/01 02:32:04;;;;;;;13.07;5.60;;;;;;;11.75;100.00;102338.88;5249640;28;20483;-69
2023/10/01 02:34:36;;;;;;;15.55;5.15;;;;;;;11.79;100.00;102346.50;5253099;28;20040;-70
2023/10/01 02:37:08;;;;;;;13.57;5.55;;;;;;;11.86;100.00;102333.41;5253210;28;20259;-69
2023/10/01 02:39:38;;;;;;;17.55;6.07;;;;;;;11.90;100.00;102345.59;5252900;28;20028;-70
2023/10/01 02:42:20;;;;;;;15.90;5.57;;;;;;;11.95;100.00;102337.97;5252904;28;20040;-69
2023/10/01 02:44:53;;;;;;;22.05;6.60;;;;;;;12.00;100.00;102335.69;5250415;28;20081;-70
2023/10/01 02:47:25;;;;;;;19.25;5.97;;;;;;;12.04;100.00;102339.78;5248525;28;20440;-69
2023/10/01 02:49:59;;;;;;;13.00;5.13;;;;;;;12.04;100.00;102339.78;5247369;28;20028;-69
2023/10/01 02:52:36;;;;;;;15.68;5.93;;;;;;;12.01;100.00;102347.31;5250738;28;20465;-70
2023/10/01 02:55:17;;;;;;;12.65;5.28;;;;;;;11.96;100.00;102342.34;5245634;28;20029;-71
2023/10/01 02:57:50;;;;;;;13.98;5.45;;;;;;;11.90;100.00;102348.28;5245282;28;20100;-71
2023/10/01 03:00:21;;;;;;;13.00;4.82;;;;;;;11.85;100.00;102350.53;5249545;28;20040;-71
2023/10/01 03:02:59;;;;;;;11.63;5.28;;;;;;;11.80;100.00;102345.53;5251750;28;20541;-71
2023/10/01 03:05:30;;;;;;;16.38;5.43;;;;;;;11.80;100.00;102350.06;5253097;28;20151;-71
2023/10/01 03:08:04;;;;;;;19.58;5.70;;;;;;;11.74;100.00;102347.91;5254437;28;20287;-71
2023/10/01 03:10:38;;;;;;;13.57;4.78;;;;;;;11.70;100.00;102347.34;5256656;28;20055;-70
2023/10/01 03:13:16;;;;;;;13.90;5.47;;;;;;;11.68;100.00;102344.78;5255362;28;20046;-71
2023/10/01 03:16:39;;;;;;;17.92;5.47;;;;;;;11.68;100.00;102338.56;5254197;28;20050;-69
2023/10/01 03:18:38;;;;;;;17.90;5.32;;;;;;;11.62;100.00;102339.97;5251308;28;20028;-70
2023/10/01 03:22:08;;;;;;;12.90;5.13;;;;;;;11.61;100.00;102345.47;5254898;28;20059;-70
2023/10/01 03:24:04;;;;;;;12.88;5.20;;;;;;;11.55;100.00;102346.03;5251664;28;20027;-69
2023/10/01 03:26:35;;;;;;;18.70;5.47;;;;;;;11.54;100.00;102350.53;5254949;28;20024;-70
2023/10/01 03:29:17;;;;;;;12.40;5.55;;;;;;;11.51;100.00;102350.81;5254315;28;20031;-70
2023/10/01 03:31:53;;;;;;;13.75;6.03;;;;;;;11.51;100.00;102350.81;5246294;28;20020;-70
2023/10/01 03:34:30;;;;;;;13.82;5.45;;;;;;;11.50;100.00;102343.75;5253222;28;20397;-70
2023/10/01 03:37:00;;;;;;;15.95;4.97;;;;;;;11.51;100.00;102347.28;5253722;28;20024;-70
2023/10/01 03:39:35;;;;;;;15.70;6.25;;;;;;;11.48;100.00;102342.16;5248781;28;20630;-70
2023/10/01 03:42:14;;;;;;;;;;;;;;;11.45;100.00;102340.63;5253812;28;20032;-70
2023/10/01 03:45:25;;;;;;;13.70;4.70;;;;;;;11.41;100.00;102336.50;5248304;28;19919;-70
2023/10/01 03:47:57;;;;;;;16.65;7.07;;;;;;;11.40;100.00;102341.03;5247718;28;20035;-70
2023/10/01 03:50:31;;;;;;;18.52;5.78;;;;;;;11.39;100.00;102339.28;5250135;28;20433;-70
2023/10/01 03:53:10;;;;;;;15.93;5.78;;;;;;;11.34;100.00;102344.22;5245576;28;20081;-70
2023/10/01 03:55:46;;;;;;;18.27;6.53;;;;;;;11.37;100.00;102337.75;5248456;28;20024;-70
2023/10/01 03:58:26;;;;;;;16.48;6.53;;;;;;;11.44;100.00;102336.19;5245655;28;20078;-70
2023/10/01 04:01:03;;;;;;;14.93;6.00;;;;;;;11.48;100.00;102332.25;5253547;28;20086;-70
2023/10/01 04:03:38;;;;;;;15.27;6.05;;;;;;;11.50;100.00;102330.31;5249941;28;20093;-70
2023/10/01 04:06:10;;;;;;;15.43;5.70;;;;;;;11.53;100.00;102329.16;5250026;28;20040;-70
2023/10/01 04:08:44;;;;;;;17.88;6.55;;;;;;;11.56;100.00;102329.75;5248877;28;20013;-70
2023/10/01 04:11:15;;;;;;;17.10;6.22;;;;;;;11.58;100.00;102334.97;5249990;28;20103;-70
2023/10/01 04:14:07;;;;;;;16.58;5.75;;;;;;;11.63;100.00;102338.97;5239740;28;20030;-70
2023/10/01 04:16:40;;;;;;;15.25;5.53;;;;;;;11.64;100.00;102343.34;5253599;28;20036;-70
2023/10/01 04:19:11;;;;;;;18.13;6.78;;;;;;;11.64;100.00;102337.97;5245476;28;20091;-70
2023/10/01 04:21:43;;;;;;;16.45;5.32;;;;;;;11.59;100.00;102329.47;5254402;28;20472;-70
2023/10/01 04:24:16;;;;;;;21.27;6.97;;;;;;;11.55;100.00;102330.75;5242689;28;20016;-70
2023/10/01 04:26:46;;;;;;;16.13;5.53;;;;;;;11.55;100.00;102332.59;5236297;28;20485;-70
2023/10/01 04:29:17;;;;;;;15.60;5.93;;;;;;;11.46;100.00;102328.03;5247332;28;20024;-70
2023/10/01 04:31:49;;;;;;;16.77;6.78;;;;;;;11.42;100.00;102338.19;5251563;28;20111;-70
2023/10/01 04:34:20;;;;;;;16.63;5.57;;;;;;;11.39;100.00;102333.91;5251400;28;20027;-70
2023/10/01 04:36:50;;;;;;;13.93;5.72;;;;;;;11.37;100.00;102329.69;5253673;28;20094;-70
2023/10/01 04:39:21;;;;;;;14.75;5.78;;;;;;;11.37;100.00;102330.53;5253210;28;20115;-70
2023/10/01 04:41:58;;;;;;;11.90;5.30;;;;;;;11.35;100.00;102339.72;5252771;28;20333;-70
2023/10/01 04:44:30;;;;;;;17.10;6.22;;;;;;;11.32;100.00;102338.16;5250037;28;20062;-70
2023/10/01 04:47:30;;;;;;;16.95;6.25;;;;;;;11.30;100.00;102337.44;5246168;28;20100;-70
2023/10/01 04:49:51;;;;;;;12.73;5.82;;;;;;;11.21;100.00;102330.19;5252110;28;20351;-70
2023/10/01 04:52:24;;;;;;;18.15;6.90;;;;;;;11.23;100.00;102330.03;5247217;28;20029;-70
2023/10/01 04:54:55;;;;;;;18.10;6.55;;;;;;;11.23;100.00;102328.19;5252752;28;20016;-70
2023/10/01 04:57:25;;;;;;;19.52;6.88;;;;;;;11.23;100.00;102338.09;5250644;28;20073;-70
2023/10/01 04:59:57;;;;;;;16.17;6.63;;;;;;;11.24;100.00;102335.28;5255354;28;20016;-70
2023/10/01 05:02:29;;;;;;;11.57;6.18;;;;;;;11.26;100.00;102338.69;5250085;28;20398;-70
2023/10/01 05:05:09;;;;;;;20.80;6.28;;;;;;;11.23;100.00;102336.25;5254068;28;20021;-70
2023/10/01 05:07:39;;;;;;;16.08;5.65;;;;;;;11.21;100.00;102340.09;5247164;28;20091;-70
2023/10/01 05:10:12;;;;;;;17.50;6.60;;;;;;;11.21;100.00;102350.81;5249443;28;20046;-70
2023/10/01 05:12:43;;;;;;;15.35;6.22;;;;;;;11.18;100.00;102349.25;5251268;28;20027;-70
2023/10/01 05:15:17;;;;;;;16.60;6.22;;;;;;;11.14;100.00;102337.94;5247465;28;20092;-70
2023/10/01 05:17:48;;;;;;;15.60;6.07;;;;;;;11.13;100.00;102343.41;5238627;28;20545;-70
2023/10/01 05:20:19;;;;;;;14.38;5.78;;;;;;;11.14;100.00;102342.44;5251709;28;20079;-70
2023/10/01 05:22:54;;;;;;;13.82;5.75;;;;;;;11.16;100.00;102337.78;5246266;28;20089;-70
2023/10/01 05:25:26;;;;;;;13.90;6.05;;;;;;;11.16;100.00;102340.47;5246719;28;20415;-70
2023/10/01 05:27:59;;;;;;;13.98;5.95;;;;;;;11.14;100.00;102340.63;5242651;28;20096;-70
2023/10/01 05:30:36;;;;;;;21.80;7.22;;;;;;;11.15;100.00;102353.06;5239643;28;20124;-70
2023/10/01 05:33:11;;;;;;;13.68;5.38;;;;;;;11.15;100.00;102354.91;5241663;28;20057;-70
2023/10/01 05:35:44;;;;;;;17.52;6.13;;;;;;;11.19;100.00;102356.31;5245303;28;20031;-70
2023/10/01 05:38:16;;;;;;;16.98;5.88;;;;;;;11.17;100.00;102349.38;5242981;28;20028;-70
2023/10/01 05:40:52;;;;;;;15.63;6.07;;;;;;;11.12;100.00;102347.09;5242193;28;20024;-70
2023/10/01 05:43:27;;;;;;;15.52;6.22;;;;;;;11.17;100.00;102352.91;5239019;28;20104;-70
2023/10/01 05:46:01;;;;;;;;;;;;;;;11.16;100.00;102361.97;5242564;28;20032;-70
2023/10/01 05:48:34;;;;;;;19.25;5.13;;;;;;;11.12;100.00;102358.69;5242091;28;19974;-70
2023/10/01 05:51:12;;;;;;;16.70;5.63;;;;;;;11.08;100.00;102346.50;5244961;28;20027;-70
2023/10/01 05:53:42;;;;;;;16.40;6.20;;;;;;;11.07;100.00;102343.97;5246678;28;20469;-70
2023/10/01 05:56:18;;;;;;;14.77;5.15;;;;;;;11.06;100.00;102347.63;5246033;28;20028;-70
2023/10/01 05:58:49;;;;;;;17.85;6.15;;;;;;;11.09;100.00;102350.03;5242452;28;20033;-70
2023/10/01 06:01:21;;;;;;;20.15;6.28;;;;;;;11.13;100.00;102351.47;5242497;28;20020;-70
2023/10/01 06:03:55;;;;;;;16.13;6.90;;;;;;;11.16;100.00;102343.16;5242610;28;20385;-70
2023/10/01 06:06:26;;;;;;;14.68;5.57;;;;;;;11.24;100.00;102356.75;5246002;28;20100;-70
2023/10/01 06:09:09;;;;;;;16.27;5.68;;;;;;;11.27;100.00;102352.97;5246328;28;20118;-70
2023/10/01 06:11:41;;;;;;;16.27;6.78;;;;;;;11.30;100.00;102350.03;5239715;28;20021;-70
2023/10/01 06:14:36;;;;;;;14.90;6.30;;;;;;;11.35;100.00;102353.16;5241853;28;20047;-70
2023/10/01 06:17:04;;;;;;;19.50;6.25;;;;;;;11.41;100.00;102347.25;5246013;28;20488;-70
2023/10/01 06:19:38;;;;;;;15.68;6.32;;;;;;;11.48;100.00;102347.53;5242461;28;20287;-69
2023/10/01 06:22:22;;;;;;;18.08;6.82;;;;;;;11.51;100.00;102347.28;5242796;28;20028;-70
2023/10/01 06:24:54;;;;;;;23.13;7.00;;;;;;;11.60;100.00;102346.47;5243063;28;20297;-71
2023/10/01 06:27:25;;;;;;;17.25;6.32;;;;;;;11.67;100.00;102342.22;5246107;28;20481;-70
2023/10/01 06:30:00;;;;;;;15.93;6.20;;;;;;;11.85;100.00;102350.53;5244285;28;20054;-70
2023/10/01 06:32:33;;;;;;;16.33;6.85;;;;;;;12.10;100.00;102344.63;5244779;28;20043;-70
2023/10/01 06:35:04;;;;;;;22.50;7.97;;;;;;;12.40;100.00;102332.91;5248747;28;20032;-70
2023/10/01 06:37:50;;;;;;;19.02;6.35;;;;;;;12.63;100.00;102328.03;5246800;28;20024;-70
2023/10/01 06:40:29;;;;;;;;;;;;;;;12.90;100.00;102331.81;5244147;28;20033;-70
2023/10/01 06:43:00;;;;;;;19.17;6.47;;;;;;;13.33;100.00;102338.53;5246859;28;19916;-70
2023/10/01 06:45:38;;;;;;;13.85;6.00;;;;;;;13.73;100.00;102341.72;5246463;28;20534;-70
2023/10/01 06:48:09;;;;;;;20.90;6.63;;;;;;;14.08;100.00;102339.25;5245853;28;20060;-70
2023/10/01 06:50:40;;;;;;;17.60;6.63;;;;;;;14.39;100.00;102337.00;5246458;28;20107;-70
2023/10/01 06:53:13;;;;;;;19.77;6.53;;;;;;;14.63;100.00;102331.84;5245982;28;20029;-70
2023/10/01 06:55:47;;;;;;;22.08;7.85;;;;;;;14.94;100.00;102332.25;5246062;28;20020;-70
2023/10/01 06:58:17;;;;;;;16.75;6.20;;;;;;;15.38;100.00;102334.00;5246361;28;20028;-70
2023/10/01 07:00:48;;;;;;;12.98;6.00;;;;;;;15.96;100.00;102344.91;5248668;28;20570;-71
2023/10/01 07:03:19;;;;;;;19.00;6.60;;;;;;;16.37;100.00;102339.56;5243123;28;20044;-71
2023/10/01 07:05:51;;;;;;;20.05;7.18;;;;;;;16.89;100.00;102328.41;5245375;28;20118;-71
2023/10/01 07:08:37;;;;;;;17.48;7.35;;;;;;;17.33;100.00;102323.38;5246270;28;20153;-71
2023/10/01 07:11:18;;;;;;;17.98;7.00;;;;;;;17.73;100.00;102324.25;5244250;28;20104;-70
2023/10/01 07:13:52;;;;;;;18.67;6.78;;;;;;;18.23;100.00;102330.22;5250461;28;20028;-71
2023/10/01 07:16:36;;;;;;;20.02;7.53;;;;;;;18.41;100.00;102330.75;5247309;28;20032;-71
2023/10/01 07:19:11;;;;;;;23.02;6.85;;;;;;;18.93;100.00;102334.59;5249288;28;20063;-71
2023/10/01 07:21:41;;;;;;;18.70;7.40;;;;;;;19.03;100.00;102343.31;5250556;28;20061;-71
2023/10/01 07:24:12;;;;;;;14.85;7.38;;;;;;;19.43;100.00;102339.28;5250671;28;20094;-71
2023/10/01 07:26:42;;;;;;;18.83;7.65;;;;;;;19.52;100.00;102342.72;5251190;28;20028;-71
2023/10/01 07:29:13;;;;;;;18.15;7.43;;;;;;;19.67;100.00;102344.44;5246088;28;20028;-71
2023/10/01 07:31:43;;;;;;;15.98;7.13;;;;;;;19.97;100.00;102351.69;5246684;28;20047;-71
2023/10/01 07:34:14;;;;;;;17.85;7.43;;;;;;;20.06;100.00;102343.22;5246416;28;20032;-71
2023/10/01 07:36:45;;;;;;;14.98;6.90;;;;;;;20.19;100.00;102345.25;5252907;28;20032;-71
2023/10/01 07:39:15;;;;;;;16.00;6.65;;;;;;;20.18;100.00;102335.38;5252496;28;20104;-71
2023/10/01 07:41:48;;;;;;;17.27;7.65;;;;;;;20.26;100.00;102328.97;5250846;28;20036;-71
2023/10/01 07:44:18;;;;;;;21.52;8.10;;;;;;;20.54;100.00;102334.50;5244940;28;20074;-71
2023/10/01 07:46:49;;;;;;;17.80;7.68;;;;;;;20.55;100.00;102328.84;5245716;28;20028;-71
2023/10/01 07:49:21;;;;;;;12.80;6.03;;;;;;;20.93;100.00;102334.84;5245230;28;20023;-71
2023/10/01 07:51:51;;;;;;;15.40;6.85;;;;;;;21.06;100.00;102330.50;5245961;28;20499;-71
2023/10/01 07:54:23;;;;;;;13.55;6.35;;;;;;;21.42;100.00;102343.97;5248886;28;20024;-71
2023/10/01 07:56:56;;;;;;;16.20;6.65;;;;;;;21.67;100.00;102344.28;5243191;28;20017;-70
2023/10/01 07:59:33;;;;;;;19.17;7.55;;;;;;;21.68;100.00;102345.97;5245668;28;20031;-71
2023/10/01 08:02:21;;;;;;;14.15;7.00;;;;;;;21.83;100.00;102338.47;5252818;28;20020;-71
2023/10/01 08:04:58;;;;;;;34.67;8.65;;;;;;;21.82;100.00;102346.88;5250984;28;20111;-72
2023/10/01 08:07:31;;;;;;;18.45;7.95;;;;;;;21.84;100.00;102347.50;5245849;28;20028;-71
2023/10/01 08:10:04;;;;;;;14.18;6.28;;;;;;;22.26;100.00;102356.50;5252302;28;20088;-71
2023/10/01 08:13:04;;;;;;;20.73;7.63;;;;;;;22.25;100.00;102357.56;5247898;28;20116;-71
2023/10/01 08:15:38;;;;;;;17.73;7.53;;;;;;;22.33;100.00;102362.81;5245948;28;20393;-71
2023/10/01 08:18:34;;;;;;;17.70;8.10;;;;;;;22.75;100.00;102353.38;5246235;28;20032;-72
2023/10/01 08:21:15;;;;;;;18.17;7.03;;;;;;;22.66;100.00;102349.19;5247646;28;20024;-71
2023/10/01 08:23:48;;;;;;;17.92;7.30;;;;;;;22.55;100.00;102355.28;5245182;28;20510;-72
2023/10/01 08:29:07;;;;;;;18.90;7.03;;;;;;;22.93;100.00;102360.97;5244854;28;20104;-71
2023/10/01 08:34:28;;;;;;;19.65;7.30;;;;;;;22.75;100.00;102358.88;5249718;28;20085;-72
2023/10/01 08:37:06;;;;;;;15.43;6.75;;;;;;;23.04;100.00;102364.97;5247990;28;20048;-72
2023/10/01 08:39:47;;;;;;;21.35;8.10;;;;;;;23.35;100.00;102362.38;5249150;28;20124;-72
2023/10/01 08:42:17;;;;;;;18.70;7.65;;;;;;;23.66;100.00;102361.69;5245876;28;20031;-72
2023/10/01 08:44:50;;;;;;;17.65;7.43;;;;;;;23.58;100.00;102364.63;5245545;28;20473;-72
2023/10/01 08:47:27;;;;;;;17.35;6.53;;;;;;;23.70;100.00;102364.84;5246270;28;20028;-72
2023/10/01 08:50:19;;;;;;;17.88;7.13;;;;;;;23.96;100.00;102364.72;5242958;28;20181;-72
2023/10/01 08:52:56;;;;;;;20.20;7.78;;;;;;;23.98;100.00;102370.81;5245158;28;20036;-72
2023/10/01 08:55:35;;;;;;;19.63;7.15;;;;;;;24.02;100.00;102373.94;5243114;28;20063;-72
2023/10/01 08:58:14;;;;;;;16.42;6.95;;;;;;;23.97;100.00;102369.13;5242639;28;20024;-72
2023/10/01 09:00:49;;;;;;;20.38;7.53;;;;;;;24.39;100.00;102371.44;5246558;28;20485;-72
2023/10/01 09:03:28;;;;;;;17.95;7.43;;;;;;;24.64;100.00;102369.56;5249862;28;20033;-72
2023/10/01 09:06:03;;;;;;;17.77;7.80;;;;;;;24.41;100.00;102374.81;5231114;28;20024;-72
2023/10/01 09:08:42;;;;;;;16.38;6.97;;;;;;;24.17;100.00;102365.44;5245818;28;20036;-72
2023/10/01 09:11:16;;;;;;;20.40;7.93;;;;;;;24.59;100.00;102360.31;5247938;28;20107;-72
2023/10/01 09:16:42;;;;;;;15.95;7.07;;;;;;;24.49;100.00;102347.09;5248752;28;20032;-72
2023/10/01 09:19:30;;;;;;;14.82;7.30;;;;;;;24.73;100.00;102351.75;5246082;28;20477;-72
2023/10/01 09:22:07;;;;;;;18.10;7.45;;;;;;;24.52;100.00;102352.16;5246489;28;20283;-72
2023/10/01 09:24:38;;;;;;;16.55;7.63;;;;;;;24.54;100.00;102350.00;5245798;28;20096;-72
2023/10/01 09:27:18;;;;;;;22.20;7.68;;;;;;;24.45;100.00;102354.09;5244983;28;20024;-73
2023/10/01 09:29:57;;;;;;;17.25;6.88;;;;;;;24.25;100.00;102349.56;5242936;28;20047;-72
2023/10/01 09:32:52;;;;;;;17.92;7.15;;;;;;;24.51;100.00;102348.56;5240845;28;20073;-72
2023/10/01 09:35:31;;;;;;;19.43;7.33;;;;;;;24.35;100.00;102356.44;5242423;28;20029;-72
2023/10/01 09:38:10;;;;;;;17.33;7.93;;;;;;;24.57;100.00;102340.50;5246291;28;20052;-72
2023/10/01 09:40:42;;;;;;;18.73;7.35;;;;;;;24.63;100.00;102350.56;5242966;28;20036;-71
2023/10/01 09:43:19;;;;;;;18.85;7.28;;;;;;;24.51;100.00;102345.81;5244569;28;20543;-71
2023/10/01 09:45:51;;;;;;;16.48;7.55;;;;;;;24.41;100.00;102348.22;5241287;28;20032;-71
2023/10/01 09:48:32;;;;;;;17.98;7.80;;;;;;;24.39;100.00;102341.25;5245407;28;20145;-71
2023/10/01 09:51:18;;;;;;;19.30;6.57;;;;;;;24.54;100.00;102334.38;5243853;28;20056;-71
2023/10/01 09:53:55;;;;;;;18.65;7.25;;;;;;;24.75;100.00;102330.44;5247588;28;20047;-71
2023/10/01 09:56:26;;;;;;;18.90;7.38;;;;;;;25.10;100.00;102324.41;5248426;28;20052;-71
2023/10/01 09:59:01;;;;;;;17.30;7.32;;;;;;;24.91;100.00;102331.75;5246622;28;20028;-71
2023/10/01 10:01:33;;;;;;;20.00;7.55;;;;;;;25.20;100.00;102332.97;5242935;28;20032;-71
2023/10/01 10:04:07;;;;;;;18.17;7.75;;;;;;;25.22;100.00;102327.25;5249469;28;20392;-71
2023/10/01 10:06:39;;;;;;;19.50;7.50;;;;;;;25.38;100.00;102326.63;5244320;28;20382;-72
2023/10/01 10:09:25;;;;;;;17.70;6.55;;;;;;;25.48;100.00;102323.34;5247285;28;20028;-72
2023/10/01 10:11:55;;;;;;;21.02;8.30;;;;;;;25.31;100.00;102312.16;5243410;28;20024;-72
2023/10/01 10:14:27;;;;;;;16.60;6.75;;;;;;;25.23;100.00;102318.75;5245572;28;20021;-71
2023/10/01 10:16:59;;;;;;;20.48;7.82;;;;;;;25.40;100.00;102323.63;5246816;28;20035;-71
2023/10/01 10:19:31;;;;;;;18.75;7.30;;;;;;;25.34;100.00;102310.84;5251456;28;20204;-71
2023/10/01 10:24:47;;;;;;;17.58;7.03;;;;;;;25.12;100.00;102310.47;5246115;28;20085;-71
2023/10/01 10:27:25;;;;;;;16.58;6.95;;;;;;;25.09;100.00;102310.91;5249364;28;20030;-72
2023/10/01 10:29:56;;;;;;;16.75;7.10;;;;;;;24.90;100.00;102312.75;5246250;28;20516;-72
2023/10/01 10:32:29;;;;;;;15.30;6.95;;;;;;;24.93;100.00;102313.13;5248573;28;20474;-73
2023/10/01 10:35:06;;;;;;;17.63;7.07;;;;;;;25.05;100.00;102314.09;5245844;28;20040;-72
2023/10/01 10:37:36;;;;;;;18.70;6.80;;;;;;;25.20;100.00;102312.88;5249825;28;20059;-73
2023/10/01 10:40:22;;;;;;;19.80;7.22;;;;;;;25.35;100.00;102312.50;5243940;28;20086;-73
2023/10/01 10:43:16;;;;;;;16.38;7.45;;;;;;;25.07;100.00;102316.63;5238966;28;20138;-71
2023/10/01 10:45:57;;;;;;;15.25;6.35;;;;;;;24.98;100.00;102313.31;5248796;28;20141;-71
2023/10/01 10:48:59;;;;;;;17.45;7.57;;;;;;;24.91;100.00;102315.28;5244357;28;20028;-71
2023/10/01 10:51:43;;;;;;;29.73;7.38;;;;;;;25.21;100.00;102311.84;5247900;28;20036;-71
2023/10/01 10:54:27;;;;;;;15.45;6.93;;;;;;;25.40;100.00;102313.50;5240957;28;20478;-72
2023/10/01 10:56:58;;;;;;;20.70;7.80;;;;;;;25.18;100.00;102309.53;5243086;28;20539;-72
2023/10/01 10:59:29;;;;;;;15.95;6.60;;;;;;;25.21;100.00;102303.59;5246531;28;20029;-71
2023/10/01 11:01:59;;;;;;;16.92;7.35;;;;;;;25.24;100.00;102297.63;5245152;28;20123;-72
2023/10/01 11:04:30;;;;;;;16.58;6.75;;;;;;;25.22;100.00;102302.53;5247083;28;20078;-72
2023/10/01 11:07:02;;;;;;;22.90;7.57;;;;;;;25.34;100.00;102308.09;5244707;28;20028;-71
2023/10/01 11:09:34;;;;;;;19.42;7.00;;;;;;;25.47;100.00;102300.53;5248628;28;20424;-71
2023/10/01 11:12:18;;;;;;;18.05;7.40;;;;;;;25.27;100.00;102305.44;5245765;28;20052;-71
2023/10/01 11:14:56;;;;;;;18.97;7.27;;;;;;;25.25;100.00;102304.78;5242329;28;20032;-72
2023/10/01 11:17:26;;;;;;;19.15;7.40;;;;;;;25.42;100.00;102302.28;5241763;28;20116;-71
2023/10/01 11:19:58;;;;;;;18.20;7.15;;;;;;;25.39;100.00;102298.09;5244262;28;20016;-71
2023/10/01 11:22:29;;;;;;;17.65;7.63;;;;;;;25.55;100.00;102286.47;5248179;28;20098;-72
2023/10/01 11:24:59;;;;;;;17.17;7.68;;;;;;;25.79;100.00;102284.69;5248291;28;20029;-70
2023/10/01 11:27:45;;;;;;;17.48;7.78;;;;;;;25.99;100.00;102289.06;5249527;28;20036;-70
2023/10/01 11:30:16;;;;;;;20.25;7.60;;;;;;;25.92;100.00;102282.84;5248889;28;20028;-72
2023/10/01 11:32:58;;;;;;;18.88;8.07;;;;;;;25.98;100.00;102282.72;5252698;28;20134;-71
2023/10/01 11:35:32;;;;;;;19.95;8.18;;;;;;;26.10;100.00;102280.00;5242615;28;20028;-71
2023/10/01 11:38:14;;;;;;;18.83;7.18;;;;;;;26.06;100.00;102274.16;5249929;28;20393;-72
2023/10/01 11:43:38;;;;;;;17.75;8.32;;;;;;;26.25;100.00;102268.56;5245782;28;20028;-71
2023/10/01 11:46:18;;;;;;;17.15;7.32;;;;;;;26.17;100.00;102280.75;5252244;28;20028;-72
2023/10/01 11:48:58;;;;;;;20.40;7.85;;;;;;;26.28;100.00;102276.34;5249845;28;20024;-71
2023/10/01 11:51:46;;;;;;;17.45;7.72;;;;;;;26.25;100.00;102271.31;5249982;28;20395;-72
2023/10/01 11:54:18;;;;;;;17.10;7.57;;;;;;;26.29;100.00;102264.25;5250676;28;20223;-72
2023/10/01 11:57:07;;;;;;;18.20;7.47;;;;;;;26.25;100.00;102258.38;5249437;28;20024;-71
2023/10/01 11:59:42;;;;;;;20.27;7.97;;;;;;;26.15;100.00;102260.03;5248902;28;20409;-71
2023/10/01 12:02:20;;;;;;;;;;;;;;;26.32;100.00;102261.88;5252393;28;20059;-71
2023/10/01 12:04:57;;;;;;;15.95;7.60;;;;;;;26.36;100.00;102248.50;5253842;28;19915;-71
2023/10/01 12:07:43;;;;;;;18.00;7.57;;;;;;;26.37;100.00;102246.56;5249969;28;20020;-72